Time;durP1;ratioP1;P1;durP2;ratioP2;P2;SDS_P1;SDS_P2;PMS_P1;PMS_P2;Temp;Humidity;BMP_temperature;BMP_pressure;BME280_temperature;BME280_humidity;BME280_pressure;Samples;Min_cycle;Max_cycle;Signal;HPM_P1;HPM_P2
2022/07/12 14:18:46;;;;;;;29.70;4.88;;;17.90;82.30;;;;;;5036260;27;2664098;-70
2022/07/12 14:21:12;;;;;;;15.63;4.88;;;18.00;81.80;;;;;;5116120;28;20028;-71
2022/07/12 14:23:40;;;;;;;27.02;4.07;;;18.00;81.40;;;;;;5122250;28;20030;-70
2022/07/12 14:26:07;;;;;;;17.58;3.28;;;18.10;81.40;;;;;;5122974;28;20106;-72
2022/07/12 14:28:33;;;;;;;13.23;4.00;;;18.10;81.30;;;;;;5103236;28;20424;-72
2022/07/12 14:31:00;;;;;;;22.15;12.55;;;18.10;81.40;;;;;;5118438;28;20012;-70
2022/07/12 14:33:26;;;;;;;13.80;8.23;;;18.20;81.50;;;;;;5122992;28;20054;-71
2022/07/12 14:35:53;;;;;;;19.77;8.10;;;18.20;81.80;;;;;;5111859;28;20126;-71
2022/07/12 14:38:19;;;;;;;24.15;5.65;;;18.20;82.00;;;;;;5122758;28;20012;-71
2022/07/12 14:40:46;;;;;;;18.27;4.05;;;18.20;81.50;;;;;;5105211;28;20072;-71
2022/07/12 14:43:12;;;;;;;18.65;5.75;;;18.20;81.50;;;;;;5118005;28;20012;-71
2022/07/12 14:45:41;;;;;;;21.10;5.65;;;18.10;81.80;;;;;;5115078;28;20020;-73
2022/07/12 14:48:08;;;;;;;49.15;6.93;;;18.10;82.00;;;;;;5123860;28;20553;-74
2022/07/12 14:50:34;;;;;;;30.05;5.20;;;18.10;81.90;;;;;;5121462;28;20027;-73
2022/07/12 14:53:01;;;;;;;21.35;5.47;;;18.00;81.50;;;;;;5120095;28;20098;-69
2022/07/12 14:55:27;;;;;;;11.25;2.70;;;18.10;81.30;;;;;;5119006;28;20023;-69
2022/07/12 14:57:53;;;;;;;6.70;2.63;;;18.00;80.70;;;;;;5123982;28;20153;-70
2022/07/12 15:00:20;;;;;;;12.27;2.83;;;18.00;80.30;;;;;;5121235;28;20012;-70
2022/07/12 15:02:49;;;;;;;11.88;2.90;;;17.90;80.20;;;;;;5116685;28;20032;-71
2022/07/12 15:05:16;;;;;;;14.82;3.90;;;17.90;80.10;;;;;;5112859;28;20421;-70
2022/07/12 15:07:42;;;;;;;10.90;2.53;;;17.90;80.20;;;;;;5115699;28;20027;-71
2022/07/12 15:10:09;;;;;;;9.00;3.88;;;17.80;80.00;;;;;;5095799;28;20023;-76
2022/07/12 15:12:35;;;;;;;15.27;4.13;;;17.80;80.20;;;;;;5113021;28;20030;-72
2022/07/12 15:15:02;;;;;;;14.48;4.75;;;17.80;80.90;;;;;;5117396;28;20114;-72
2022/07/12 15:17:29;;;;;;;14.55;3.63;;;17.80;81.90;;;;;;5090306;28;20048;-74
2022/07/12 15:19:55;;;;;;;13.35;5.63;;;17.70;82.60;;;;;;5107279;28;20044;-71
2022/07/12 15:22:22;;;;;;;14.27;4.53;;;17.70;83.30;;;;;;5111076;28;20023;-70
2022/07/12 15:24:48;;;;;;;14.95;5.65;;;17.60;84.80;;;;;;5105055;28;20063;-76
2022/07/12 15:27:15;;;;;;;26.90;5.60;;;17.60;86.40;;;;;;5103543;28;20026;-71
2022/07/12 15:29:42;;;;;;;43.97;24.88;;;17.50;87.90;;;;;;5103916;28;20027;-76
2022/07/12 15:32:09;;;;;;;269.58;47.08;;;17.50;88.50;;;;;;5111646;28;20022;-75
2022/07/12 15:34:36;;;;;;;54.53;10.15;;;17.50;89.20;;;;;;5111505;28;20020;-72
2022/07/12 15:37:02;;;;;;;211.95;22.83;;;17.40;89.40;;;;;;5106347;28;20049;-69
2022/07/12 15:39:29;;;;;;;81.05;15.30;;;17.30;89.80;;;;;;5107577;28;20023;-70
2022/07/12 15:41:56;;;;;;;32.70;7.63;;;17.20;90.00;;;;;;5105569;28;20024;-68
2022/07/12 15:44:22;;;;;;;21.38;6.03;;;17.30;90.10;;;;;;5105181;28;20031;-69
2022/07/12 15:46:49;;;;;;;34.10;18.40;;;17.20;90.10;;;;;;5108646;28;20024;-73
2022/07/12 15:49:15;;;;;;;21.65;11.00;;;17.20;90.30;;;;;;5108981;28;20016;-70
2022/07/12 15:54:27;;;;;;;24.07;9.13;;;17.20;90.40;;;;;;5109089;28;20654;-69
2022/07/12 15:56:53;;;;;;;54.55;33.67;;;17.20;90.40;;;;;;5103585;28;20020;-72
2022/07/12 15:59:20;;;;;;;26.63;15.45;;;17.20;90.20;;;;;;5105635;28;20015;-71
2022/07/12 16:01:47;;;;;;;24.73;13.10;;;17.20;90.10;;;;;;5106483;28;20030;-71
2022/07/12 16:04:13;;;;;;;16.60;8.45;;;17.20;90.10;;;;;;5092623;28;20466;-71
2022/07/12 16:06:40;;;;;;;18.92;7.60;;;17.20;90.10;;;;;;5101664;28;20107;-71
2022/07/12 16:09:06;;;;;;;11.38;5.90;;;17.20;90.10;;;;;;5098855;28;20489;-72
2022/07/12 16:11:33;;;;;;;14.15;5.90;;;17.20;90.10;;;;;;5104661;28;20020;-70
2022/07/12 16:13:59;;;;;;;16.88;4.38;;;17.10;90.00;;;;;;5105099;28;20062;-71
2022/07/12 16:16:26;;;;;;;19.95;5.00;;;17.10;90.00;;;;;;5104461;28;20474;-71
2022/07/12 16:18:52;;;;;;;16.25;5.47;;;17.10;90.00;;;;;;5098298;28;20139;-69
2022/07/12 16:21:19;;;;;;;22.75;5.30;;;17.10;90.00;;;;;;5088197;28;20043;-70
2022/07/12 16:23:46;;;;;;;15.25;5.13;;;17.00;90.00;;;;;;5105740;28;20032;-70
2022/07/12 16:26:12;;;;;;;16.23;5.57;;;17.00;90.00;;;;;;5104896;28;20030;-70
2022/07/12 16:28:38;;;;;;;16.63;5.13;;;17.00;90.00;;;;;;5103440;28;20059;-72
2022/07/12 16:31:05;;;;;;;16.23;5.47;;;17.00;90.00;;;;;;5103394;28;20024;-72
2022/07/12 16:33:31;;;;;;;24.98;7.25;;;17.00;90.00;;;;;;5104002;28;20024;-73
2022/07/12 16:36:00;;;;;;;24.85;7.70;;;16.90;90.00;;;;;;5090202;28;20367;-71
2022/07/12 16:38:26;;;;;;;25.58;10.13;;;16.90;90.00;;;;;;5106959;28;20386;-71
2022/07/12 16:40:52;;;;;;;27.73;13.75;;;16.90;90.00;;;;;;5102455;28;20368;-71
2022/07/12 16:43:19;;;;;;;23.15;12.25;;;16.90;90.00;;;;;;5105169;28;20023;-71
2022/07/12 16:45:45;;;;;;;20.95;9.40;;;16.80;90.00;;;;;;5105648;28;20144;-71
2022/07/12 16:48:12;;;;;;;18.05;9.18;;;16.80;89.90;;;;;;5105443;28;20023;-72
2022/07/12 16:50:39;;;;;;;17.17;8.77;;;16.80;89.90;;;;;;5101976;28;20370;-73
2022/07/12 16:53:07;;;;;;;17.33;8.52;;;16.70;89.90;;;;;;5087101;28;20431;-72
2022/07/12 16:55:35;;;;;;;18.80;6.45;;;16.70;89.90;;;;;;5112196;28;20031;-71
2022/07/12 16:58:03;;;;;;;20.33;7.05;;;16.70;90.00;;;;;;5113956;28;20117;-70
2022/07/12 17:00:30;;;;;;;18.77;8.55;;;16.70;90.10;;;;;;5109339;28;20089;-70
2022/07/12 17:02:58;;;;;;;18.20;7.78;;;16.70;90.10;;;;;;5111642;28;20019;-72
2022/07/12 17:06:22;;;;;;;18.38;6.55;;;16.70;90.10;;;;;;5100279;28;20539;-72
2022/07/12 17:09:29;;;;;;;42.20;22.40;;;16.70;90.20;;;;;;5105888;28;20028;-72
2022/07/12 17:11:57;;;;;;;36.80;24.08;;;16.60;90.20;;;;;;5103388;28;20069;-73
2022/07/12 17:14:24;;;;;;;34.97;19.60;;;16.60;90.20;;;;;;5079962;28;20118;-72
2022/07/12 17:16:50;;;;;;;26.63;15.32;;;16.60;90.20;;;;;;5076449;28;20415;-73
2022/07/12 17:19:17;;;;;;;28.55;15.55;;;16.50;90.20;;;;;;5099670;28;20049;-73
2022/07/12 17:21:43;;;;;;;22.95;12.00;;;16.60;90.30;;;;;;5080690;28;20038;-72
2022/07/12 17:24:10;;;;;;;25.25;11.02;;;16.60;90.40;;;;;;5100097;28;20122;-72
2022/07/12 17:26:37;;;;;;;27.55;14.20;;;16.50;90.40;;;;;;5101543;28;20019;-72
2022/07/12 17:29:05;;;;;;;47.30;15.98;;;16.60;90.50;;;;;;5096165;28;20035;-72
2022/07/12 17:31:33;;;;;;;37.53;19.83;;;16.60;90.60;;;;;;5076364;28;20047;-73
2022/07/12 17:33:59;;;;;;;43.33;30.33;;;16.60;90.60;;;;;;5098892;28;20039;-73
2022/07/12 17:36:26;;;;;;;47.08;29.65;;;16.60;90.70;;;;;;5080178;28;20575;-73
2022/07/12 17:38:52;;;;;;;45.90;28.85;;;16.60;90.70;;;;;;5099400;28;20497;-73
2022/07/12 17:41:19;;;;;;;34.92;21.10;;;16.60;90.70;;;;;;5080958;28;20016;-73
2022/07/12 17:43:45;;;;;;;26.25;15.45;;;16.60;90.80;;;;;;5104371;28;20019;-73
2022/07/12 17:46:12;;;;;;;26.67;11.95;;;16.60;90.80;;;;;;5096548;28;20051;-72
2022/07/12 17:48:41;;;;;;;24.50;11.55;;;16.60;90.80;;;;;;5097281;28;20181;-72
2022/07/12 17:51:09;;;;;;;21.30;9.82;;;16.60;90.80;;;;;;5098460;28;20016;-73
2022/07/12 17:53:35;;;;;;;33.25;9.73;;;16.60;90.80;;;;;;5100626;28;20051;-72
2022/07/12 17:56:02;;;;;;;21.02;9.02;;;16.60;90.70;;;;;;5100561;28;20035;-73
2022/07/12 17:58:37;;;;;;;19.58;10.77;;;16.60;90.70;;;;;;5096887;28;20094;-72
2022/07/12 18:01:08;;;;;;;22.40;10.25;;;16.50;90.70;;;;;;5102441;28;20054;-72
2022/07/12 18:03:39;;;;;;;23.55;10.43;;;16.50;90.70;;;;;;5099704;28;20098;-73
2022/07/12 18:06:07;;;;;;;30.85;10.77;;;16.50;90.60;;;;;;5099926;28;20020;-73
2022/07/12 18:08:34;;;;;;;22.10;12.00;;;16.50;90.60;;;;;;5081783;28;20103;-73
2022/07/12 18:11:01;;;;;;;24.20;12.57;;;16.40;90.60;;;;;;5101527;28;20016;-72
2022/07/12 18:16:12;;;;;;;23.15;13.50;;;16.40;90.60;;;;;;5097951;28;20042;-73
2022/07/12 18:18:39;;;;;;;44.15;14.60;;;16.40;90.60;;;;;;5101807;28;20502;-72
2022/07/12 18:21:05;;;;;;;27.55;12.98;;;16.30;90.70;;;;;;5099840;28;20048;-72
2022/07/12 18:23:32;;;;;;;44.97;14.32;;;16.40;90.90;;;;;;5100063;28;20028;-72
2022/07/12 18:25:58;;;;;;;23.52;11.48;;;16.40;90.90;;;;;;5096652;28;20110;-72
2022/07/12 18:28:25;;;;;;;38.40;13.25;;;16.40;90.80;;;;;;5104511;28;20050;-72
2022/07/12 18:30:51;;;;;;;31.98;13.38;;;16.30;90.70;;;;;;5094667;28;20016;-72
2022/07/12 18:33:18;;;;;;;24.88;13.05;;;16.30;90.80;;;;;;5102121;28;20008;-72
2022/07/12 18:35:48;;;;;;;21.55;8.50;;;16.30;90.70;;;;;;5101209;28;20027;-72
2022/07/12 18:38:14;;;;;;;32.47;11.07;;;16.30;90.70;;;;;;5099968;28;20073;-72
2022/07/12 18:40:41;;;;;;;33.20;11.93;;;16.20;90.60;;;;;;5101359;28;20035;-73
2022/07/12 18:43:07;;;;;;;21.02;11.13;;;16.20;90.60;;;;;;5098090;28;20073;-72
2022/07/12 18:45:34;;;;;;;24.38;12.20;;;16.20;90.50;;;;;;5096504;28;20035;-72
2022/07/12 18:48:00;;;;;;;20.05;11.95;;;16.20;90.40;;;;;;5096889;28;20016;-72
2022/07/12 18:50:27;;;;;;;31.83;14.93;;;16.20;90.50;;;;;;5099803;28;21815;-72
2022/07/12 18:52:53;;;;;;;26.45;13.95;;;16.20;90.40;;;;;;5100450;28;20544;-72
2022/07/12 18:55:20;;;;;;;31.02;17.73;;;16.10;90.40;;;;;;5103281;28;20007;-72
2022/07/12 18:57:47;;;;;;;42.72;21.02;;;16.10;90.80;;;;;;5098475;28;20016;-73
2022/07/12 19:00:14;;;;;;;45.10;22.52;;;16.10;90.50;;;;;;5101923;28;20035;-72
2022/07/12 19:02:40;;;;;;;35.03;21.60;;;16.10;90.80;;;;;;5104239;28;20053;-73
2022/07/12 19:05:07;;;;;;;32.67;18.15;;;16.10;90.60;;;;;;5083234;28;20135;-73
2022/07/12 19:07:34;;;;;;;37.47;19.38;;;16.00;90.60;;;;;;5083660;28;20023;-74
2022/07/12 19:10:00;;;;;;;36.38;14.60;;;16.00;90.60;;;;;;5100864;28;20065;-74
2022/07/12 19:12:30;;;;;;;32.63;14.32;;;16.00;90.60;;;;;;5105238;28;20032;-72
2022/07/12 19:14:57;;;;;;;37.72;12.65;;;16.00;90.80;;;;;;5106208;28;20015;-72
2022/07/12 19:17:24;;;;;;;28.25;10.50;;;16.00;90.80;;;;;;5108232;28;20524;-73
2022/07/12 19:19:51;;;;;;;38.10;12.35;;;16.00;90.90;;;;;;5102732;28;20101;-72
2022/07/12 19:22:17;;;;;;;30.02;11.35;;;16.00;90.90;;;;;;5104881;28;20008;-72
2022/07/12 19:24:43;;;;;;;38.03;14.43;;;16.00;91.00;;;;;;5088204;28;20032;-72
2022/07/12 19:27:10;;;;;;;53.20;23.38;;;16.00;91.00;;;;;;5106741;28;20029;-72
2022/07/12 19:29:36;;;;;;;72.20;33.65;;;16.00;91.00;;;;;;5100708;28;20016;-72
2022/07/12 19:32:03;;;;;;;78.40;39.78;;;16.00;91.00;;;;;;5100857;28;20036;-73
2022/07/12 19:34:30;;;;;;;62.05;32.75;;;16.00;91.10;;;;;;5101081;28;20095;-73
2022/07/12 19:36:56;;;;;;;58.03;24.30;;;16.00;91.10;;;;;;5098122;28;20055;-73
2022/07/12 19:39:24;;;;;;;46.70;18.50;;;16.00;91.40;;;;;;5107140;28;20039;-73
2022/07/12 19:41:50;;;;;;;43.30;14.52;;;16.00;91.30;;;;;;5101601;28;20120;-73
2022/07/12 19:44:17;;;;;;;36.42;12.90;;;16.00;91.30;;;;;;5103923;28;20039;-72
2022/07/12 19:46:44;;;;;;;29.15;10.98;;;16.00;91.40;;;;;;5106746;28;20099;-72
2022/07/12 19:49:11;;;;;;;19.77;9.98;;;16.00;91.40;;;;;;5102195;28;20079;-73
2022/07/12 19:51:38;;;;;;;31.48;10.05;;;15.90;91.30;;;;;;5100544;28;20532;-72
2022/07/12 19:54:04;;;;;;;19.50;8.55;;;15.90;91.40;;;;;;5101788;28;20080;-73
2022/07/12 19:56:31;;;;;;;26.83;10.30;;;16.00;91.50;;;;;;5098129;28;20016;-72
2022/07/12 19:58:58;;;;;;;38.67;10.38;;;15.90;91.50;;;;;;5099118;28;20023;-73
2022/07/12 20:01:24;;;;;;;34.13;10.13;;;16.00;91.80;;;;;;5104075;28;20069;-72
2022/07/12 20:03:51;;;;;;;31.52;8.27;;;16.00;91.90;;;;;;5104090;28;20032;-72
2022/07/12 22:08:33;;;;;;;9.05;3.60;;;15.20;92.50;;;;;;5052475;27;20450;-70
2022/07/12 22:11:00;;;;;;;7.82;3.38;;;15.40;92.50;;;;;;5039482;28;20033;-70
2022/07/12 22:13:27;;;;;;;4.35;3.08;;;15.40;92.40;;;;;;5041368;28;20036;-70
2022/07/12 22:15:54;;;;;;;16.63;3.17;;;15.40;92.30;;;;;;5038840;28;20471;-72
2022/07/12 22:18:20;;;;;;;19.10;4.03;;;15.50;92.30;;;;;;5040092;28;20513;-71
2022/07/12 22:20:47;;;;;;;14.02;2.75;;;15.50;92.40;;;;;;5040744;28;20057;-71
2022/07/12 22:23:13;;;;;;;12.45;3.42;;;15.50;92.40;;;;;;5026359;28;20021;-71
2022/07/12 22:25:40;;;;;;;9.25;3.28;;;15.60;92.30;;;;;;5029592;28;20474;-71
2022/07/12 22:28:06;;;;;;;7.18;2.92;;;15.50;92.20;;;;;;5039725;28;20056;-71
2022/07/12 22:30:32;;;;;;;12.07;3.33;;;15.50;92.00;;;;;;5041070;28;20112;-71
2022/07/12 22:32:59;;;;;;;13.75;3.80;;;15.50;91.90;;;;;;5038457;28;20025;-71
2022/07/12 22:35:25;;;;;;;7.40;2.80;;;15.50;91.90;;;;;;5042833;28;20032;-70
2022/07/12 22:37:52;;;;;;;8.77;3.13;;;15.50;91.80;;;;;;5039954;28;20029;-71
2022/07/12 22:40:18;;;;;;;8.80;3.72;;;15.50;91.80;;;;;;5037631;28;20025;-71
2022/07/12 22:42:45;;;;;;;9.63;3.70;;;15.50;91.70;;;;;;5033609;28;20022;-71
2022/07/12 22:45:11;;;;;;;10.27;3.20;;;15.50;91.70;;;;;;5040481;28;20021;-71
2022/07/12 22:47:38;;;;;;;8.20;3.08;;;15.50;91.60;;;;;;5041728;28;20108;-71
2022/07/12 22:50:05;;;;;;;8.57;3.72;;;15.50;91.50;;;;;;5041864;28;20092;-71
2022/07/12 22:52:31;;;;;;;8.38;2.80;;;15.50;91.50;;;;;;5034813;28;20043;-71
2022/07/12 22:54:58;;;;;;;6.43;3.13;;;15.50;91.40;;;;;;5044292;28;20025;-71
2022/07/12 22:57:24;;;;;;;13.10;4.22;;;15.40;91.40;;;;;;5037773;28;20033;-71
2022/07/12 22:59:51;;;;;;;17.05;3.08;;;15.50;91.30;;;;;;5040038;28;20148;-72
2022/07/12 23:02:17;;;;;;;10.30;3.35;;;15.40;91.30;;;;;;5040425;28;20492;-72
2022/07/12 23:04:44;;;;;;;6.47;3.63;;;15.40;91.30;;;;;;5034876;28;20025;-72
2022/07/12 23:07:10;;;;;;;5.03;2.20;;;15.50;91.20;;;;;;5031859;28;20688;-72
2022/07/12 23:09:37;;;;;;;7.47;2.50;;;15.40;91.40;;;;;;5028669;28;20029;-72
2022/07/12 23:12:03;;;;;;;10.05;2.97;;;15.40;91.10;;;;;;5027993;28;20021;-72
2022/07/12 23:14:30;;;;;;;7.07;2.75;;;15.40;91.10;;;;;;5024319;28;20099;-72
2022/07/12 23:16:56;;;;;;;12.93;2.72;;;15.40;91.20;;;;;;5023469;28;20424;-73
2022/07/12 23:19:23;;;;;;;20.33;5.10;;;15.40;91.30;;;;;;5030604;28;20025;-72
2022/07/12 23:21:49;;;;;;;10.95;2.30;;;15.40;91.50;;;;;;5032197;28;20024;-72
2022/07/12 23:24:16;;;;;;;14.32;3.35;;;15.50;91.70;;;;;;5022086;28;20017;-72
2022/07/12 23:26:42;;;;;;;10.77;3.88;;;15.50;91.70;;;;;;5016657;28;20044;-72
2022/07/12 23:29:08;;;;;;;5.70;2.20;;;15.50;91.50;;;;;;5025225;28;20112;-72
2022/07/12 23:31:36;;;;;;;24.30;3.50;;;15.50;91.40;;;;;;5033364;28;20021;-72
2022/07/12 23:34:02;;;;;;;14.63;2.95;;;15.40;91.40;;;;;;5023501;28;20021;-71
2022/07/12 23:36:29;;;;;;;9.32;2.35;;;15.40;91.40;;;;;;5029175;28;20523;-72
2022/07/12 23:38:55;;;;;;;13.00;3.60;;;15.40;91.30;;;;;;5029305;28;20022;-72
2022/07/12 23:41:21;;;;;;;6.05;2.35;;;15.40;91.20;;;;;;5020475;28;20032;-72
2022/07/12 23:43:48;;;;;;;8.27;2.53;;;15.40;91.20;;;;;;5027467;28;20036;-72
2022/07/12 23:46:15;;;;;;;4.68;2.10;;;15.40;91.50;;;;;;5022649;28;20076;-72
2022/07/12 23:48:41;;;;;;;9.20;2.90;;;15.40;91.10;;;;;;5024691;28;20021;-72
2022/07/12 23:51:08;;;;;;;17.50;2.88;;;15.40;91.10;;;;;;5024754;28;20022;-72
2022/07/12 23:53:34;;;;;;;11.50;2.40;;;15.30;91.20;;;;;;5029529;28;20499;-71
2022/07/12 23:56:01;;;;;;;9.88;2.78;;;15.40;91.20;;;;;;5034078;28;20091;-71
2022/07/12 23:58:27;;;;;;;6.07;2.13;;;15.30;91.10;;;;;;5022978;28;20014;-71
